Time;durP1;ratioP1;P1;durP2;ratioP2;P2;SDS_P1;SDS_P2;PMS_P1;PMS_P2;Temp;Humidity;BMP_temperature;BMP_pressure;BME280_temperature;BME280_humidity;BME280_pressure;Samples;Min_cycle;Max_cycle;Signal;HPM_P1;HPM_P2
2022/01/22 00:00:23;;;;;;;16.67;4.83;;;;;;;-2.19;67.07;95158.53;5065795;28;20190;-91
2022/01/22 00:02:49;;;;;;;14.03;5.57;;;;;;;-2.21;66.94;95151.88;5060186;28;20770;-90
2022/01/22 00:05:16;;;;;;;12.10;3.93;;;;;;;-2.09;66.80;95161.19;5056606;28;20183;-91
2022/01/22 00:07:42;;;;;;;10.23;4.27;;;;;;;-2.13;66.78;95162.38;5061942;28;20239;-90
2022/01/22 00:10:14;;;;;;;12.03;4.87;;;;;;;-2.25;66.68;95130.69;5065470;28;20674;-90
2022/01/22 00:13:06;;;;;;;10.87;4.33;;;;;;;-2.42;66.51;95120.97;5063226;28;20191;-89
2022/01/22 00:15:31;;;;;;;10.83;4.20;;;;;;;-2.38;66.10;95130.06;5060630;28;20273;-89
2022/01/22 00:17:57;;;;;;;10.17;4.20;;;;;;;-2.44;66.22;95115.09;5060101;28;20216;-90
2022/01/22 00:20:25;;;;;;;9.73;5.13;;;;;;;-2.46;66.02;95129.88;5063405;28;20175;-89
2022/01/22 00:22:51;;;;;;;11.03;4.33;;;;;;;-2.39;65.89;95136.16;5061861;28;20190;-89
2022/01/22 00:25:19;;;;;;;10.00;4.37;;;;;;;-2.22;66.48;95163.94;5060716;28;20257;-89
2022/01/22 00:27:47;;;;;;;10.17;4.37;;;;;;;-2.35;66.16;95129.81;5063109;28;20183;-89
2022/01/22 00:30:15;;;;;;;6.50;4.07;;;;;;;-2.56;67.26;95116.09;5060938;28;20237;-89
2022/01/22 00:32:41;;;;;;;9.60;4.40;;;;;;;-2.41;67.52;95136.28;5069061;28;20220;-89
2022/01/22 00:35:07;;;;;;;12.33;5.20;;;;;;;-2.33;67.44;95130.50;5065915;28;20199;-88
2022/01/22 00:37:34;;;;;;;7.17;4.13;;;;;;;-2.30;66.72;95130.25;5063276;28;20190;-88
2022/01/22 00:40:00;;;;;;;7.87;4.23;;;;;;;-2.21;66.22;95142.38;5059430;28;20170;-88
2022/01/22 00:42:25;;;;;;;9.47;3.87;;;;;;;-2.09;66.66;95156.03;5057242;28;20731;-88
2022/01/22 00:44:51;;;;;;;10.57;4.90;;;;;;;-2.29;66.12;95126.72;5066839;28;20179;-88
2022/01/22 00:47:20;;;;;;;8.63;4.30;;;;;;;-2.08;65.62;95168.81;5053990;28;20252;-89
2022/01/22 00:49:46;;;;;;;15.57;4.70;;;;;;;-2.09;66.08;95163.78;5058487;28;20183;-89
2022/01/22 00:52:12;;;;;;;12.57;4.70;;;;;;;-2.43;66.24;95111.59;5067611;28;20181;-89
2022/01/22 00:54:37;;;;;;;119.17;7.90;;;;;;;-2.47;65.70;95099.88;5065372;28;20180;-88
2022/01/22 00:57:04;;;;;;;6.90;3.57;;;;;;;-2.68;65.47;95118.72;5072118;28;20213;-88
2022/01/22 00:59:29;;;;;;;5.93;3.40;;;;;;;-2.70;65.85;95100.00;5076380;28;20200;-89
2022/01/22 01:01:55;;;;;;;46.53;4.07;;;;;;;-2.81;65.57;95074.31;5074765;28;20178;-87
2022/01/22 01:04:20;;;;;;;8.13;2.97;;;;;;;-2.56;65.85;95111.75;5073161;28;20178;-88
2022/01/22 01:06:46;;;;;;;6.03;2.67;;;;;;;-2.73;65.74;95105.41;5074429;28;20221;-88
2022/01/22 01:09:12;;;;;;;4.23;2.50;;;;;;;-2.52;66.42;95132.94;5073385;28;20231;-88
2022/01/22 01:11:46;;;;;;;3.20;2.30;;;;;;;-2.73;67.06;95087.38;5074293;28;20182;-88
2022/01/22 01:14:18;;;;;;;8.97;2.60;;;;;;;-2.15;66.69;95162.50;5073341;28;20157;-88
2022/01/22 01:17:07;;;;;;;5.27;2.70;;;;;;;-2.39;66.58;95102.66;5073098;28;20194;-88
2022/01/22 01:33:45;;;;;;;5.63;2.53;;;;;;;-2.50;65.02;95085.47;5074781;28;20166;-89
2022/01/22 01:36:05;;;;;;;12.93;3.87;;;;;;;-2.46;65.42;95102.34;5073894;28;20335;-88
2022/01/22 01:38:37;;;;;;;23.83;3.20;;;;;;;-2.64;65.98;95090.13;5072558;28;20204;-88
2022/01/22 01:44:25;;;;;;;5.30;2.47;;;;;;;-2.25;65.15;95125.53;5073606;28;20239;-88
2022/01/22 01:46:53;;;;;;;9.07;3.60;;;;;;;-2.33;64.94;95117.59;5072619;28;20167;-88
2022/01/22 01:49:19;;;;;;;13.53;2.80;;;;;;;-2.44;65.60;95118.50;5074123;28;20245;-88
2022/01/22 01:51:46;;;;;;;7.73;2.67;;;;;;;-2.46;65.14;95101.53;5072317;28;20635;-89
2022/01/22 01:59:45;;;;;;;3.07;2.77;;;;;;;-2.53;65.46;95066.91;5066189;28;20194;-89
2022/01/22 02:02:11;;;;;;;9.83;3.23;;;;;;;-2.53;64.49;95057.41;5063627;28;20178;-88
2022/01/22 02:04:37;;;;;;;4.13;2.53;;;;;;;-2.40;64.96;95086.38;5064581;28;20178;-88
2022/01/22 02:07:04;;;;;;;7.50;3.90;;;;;;;-2.13;64.64;95121.94;5062407;28;20276;-87
2022/01/22 02:09:30;;;;;;;46.10;3.97;;;;;;;-2.20;64.68;95128.56;5062696;28;21272;-89
2022/01/22 02:12:02;;;;;;;6.60;4.00;;;;;;;-2.36;64.64;95100.66;5065705;28;20199;-88
2022/01/22 02:25:37;;;;;;;4.23;2.17;;;;;;;-2.36;64.43;95086.94;5073526;28;20299;-88
2022/01/22 02:28:03;;;;;;;91.87;14.33;;;;;;;-2.27;64.93;95088.75;5071244;28;20220;-88
2022/01/22 02:30:32;;;;;;;2.87;2.57;;;;;;;-2.08;63.97;95111.25;5072910;28;20262;-88
2022/01/22 02:35:58;;;;;;;186.77;22.53;;;;;;;-2.34;63.89;95064.44;5073656;28;20204;-89
2022/01/22 02:38:34;;;;;;;334.20;51.37;;;;;;;-2.36;63.51;95054.25;5072982;28;20233;-89
2022/01/22 02:40:59;;;;;;;351.90;72.50;;;;;;;-2.39;62.57;95074.31;5072914;28;20304;-89
2022/01/22 02:43:25;;;;;;;421.93;176.07;;;;;;;-2.29;62.95;95090.63;5071636;28;20245;-90
2022/01/22 02:45:51;;;;;;;724.40;173.23;;;;;;;-2.47;62.83;95054.31;5071577;28;20178;-90
2022/01/22 02:48:17;;;;;;;425.00;150.03;;;;;;;-2.66;62.92;95036.97;5073017;28;20186;-89
2022/01/22 02:50:42;;;;;;;895.27;304.63;;;;;;;-2.64;62.91;95030.91;5072836;28;20189;-89
2022/01/22 02:53:11;;;;;;;717.70;153.87;;;;;;;-2.23;63.35;95103.00;5071084;28;20185;-89
2022/01/22 02:55:39;;;;;;;902.27;525.50;;;;;;;-2.33;63.05;95094.41;5065744;28;20252;-90
2022/01/22 02:58:05;;;;;;;884.37;567.30;;;;;;;-2.48;62.78;95078.44;5059588;28;20613;-90
2022/01/22 03:00:31;;;;;;;617.00;223.40;;;;;;;-2.59;62.80;95060.47;5065498;28;20186;-90
2022/01/22 03:02:57;;;;;;;563.60;324.20;;;;;;;-2.39;62.99;95079.44;5059806;28;20236;-90
2022/01/22 03:05:23;;;;;;;765.20;220.70;;;;;;;-2.42;63.15;95082.31;5052515;28;20171;-91
2022/01/22 03:07:52;;;;;;;576.10;198.43;;;;;;;-2.54;63.33;95058.34;5050856;28;20231;-87
2022/01/22 03:10:21;;;;;;;1142.97;489.30;;;;;;;-2.29;62.78;95088.88;5055203;28;20206;-87
2022/01/22 03:18:14;;;;;;;452.67;203.53;;;;;;;-2.56;63.26;95060.22;5055458;28;20241;-88
2022/01/22 03:28:55;;;;;;;1638.67;740.27;;;;;;;-2.42;62.75;95053.97;5052241;28;20174;-87
2022/01/22 03:31:21;;;;;;;1160.20;370.97;;;;;;;-2.43;62.55;95054.91;5050801;28;20183;-88
2022/01/22 03:33:46;;;;;;;523.40;281.70;;;;;;;-2.69;62.70;95026.94;5051662;28;20178;-88
2022/01/22 03:36:12;;;;;;;841.43;273.10;;;;;;;-2.78;62.80;95009.69;5050137;28;20199;-87
2022/01/22 03:38:38;;;;;;;391.73;273.83;;;;;;;-2.99;62.89;94984.84;5051817;28;20190;-87
2022/01/22 03:41:03;;;;;;;197.90;178.10;;;;;;;-2.77;63.05;95010.50;5050432;28;20237;-87
2022/01/22 03:43:29;;;;;;;158.87;144.17;;;;;;;-2.92;62.49;94985.97;5050435;28;20744;-87
2022/01/22 03:45:54;;;;;;;237.53;209.33;;;;;;;-2.90;62.81;94994.41;5050423;28;20171;-87
2022/01/22 03:48:20;;;;;;;832.50;483.10;;;;;;;-3.10;63.48;94967.72;5050700;28;21011;-87
2022/01/22 03:50:46;;;;;;;1480.70;750.03;;;;;;;-2.91;63.80;95003.88;5050774;28;20183;-87
2022/01/22 03:53:12;;;;;;;825.93;283.43;;;;;;;-2.85;63.69;95005.13;5050431;28;20649;-87
2022/01/22 03:58:03;;;;;;;408.80;142.57;;;;;;;-2.78;64.16;94983.94;5051630;28;20183;-87
2022/01/22 04:00:29;;;;;;;395.03;140.50;;;;;;;-2.38;64.53;95037.28;5050369;28;20198;-87
2022/01/22 04:05:26;;;;;;;442.50;235.83;;;;;;;-2.37;64.11;95031.19;5052064;28;20614;-87
2022/01/22 04:08:14;;;;;;;435.90;166.73;;;;;;;-2.53;63.63;95015.38;5049798;28;20302;-87
2022/01/22 04:10:40;;;;;;;877.40;526.87;;;;;;;-2.43;63.58;95016.25;5053668;28;20182;-88
2022/01/22 04:13:10;;;;;;;963.47;607.00;;;;;;;-2.59;63.02;94996.06;5059372;28;20174;-90
2022/01/22 04:15:39;;;;;;;1999.90;999.90;;;;;;;-2.31;62.56;95030.66;5065221;28;20623;-91
2022/01/22 04:29:01;;;;;;;1999.90;999.90;;;;;;;-2.71;62.95;95008.22;5061512;28;20719;-91
2022/01/22 04:31:26;;;;;;;1999.90;999.90;;;;;;;-2.48;63.29;95034.66;5062634;28;20170;-90
2022/01/22 04:33:52;;;;;;;1999.90;999.90;;;;;;;-2.80;62.94;94960.06;5061857;28;20289;-90
2022/01/22 04:36:17;;;;;;;145.93;132.97;;;;;;;-2.56;63.27;94987.28;5054504;28;20194;-90
2022/01/22 04:38:43;;;;;;;282.40;254.87;;;;;;;-2.63;63.63;94968.94;5054679;28;20254;-91
2022/01/22 04:41:09;;;;;;;950.17;368.73;;;;;;;-2.53;63.69;94976.72;5054673;28;20175;-91
2022/01/22 04:43:36;;;;;;;790.67;222.43;;;;;;;-2.42;64.10;94986.97;5054248;28;20636;-91
2022/01/22 04:46:12;;;;;;;728.23;187.50;;;;;;;-2.55;63.96;94963.97;5055749;28;20588;-91
2022/01/22 04:48:51;;;;;;;509.87;173.60;;;;;;;-2.41;64.30;94980.84;5054664;28;20181;-91
2022/01/22 04:56:47;;;;;;;423.87;130.47;;;;;;;-2.08;64.23;95001.22;5055412;28;20274;-91
2022/01/22 04:59:13;;;;;;;425.00;198.60;;;;;;;-2.15;64.32;94979.44;5054193;28;20190;-91
2022/01/22 05:01:38;;;;;;;745.90;179.43;;;;;;;-2.02;63.55;94998.09;5053309;28;20232;-89
2022/01/22 05:04:04;;;;;;;506.33;170.63;;;;;;;-2.39;64.54;94950.59;5054669;28;20187;-91
2022/01/22 05:06:30;;;;;;;426.27;142.50;;;;;;;-2.55;64.16;94934.81;5057534;28;20253;-91
2022/01/22 05:08:57;;;;;;;384.90;73.73;;;;;;;-2.13;65.19;95012.84;5062850;28;20193;-90
2022/01/22 05:11:24;;;;;;;450.07;91.17;;;;;;;-2.31;65.64;94979.94;5069025;28;20170;-91
2022/01/22 05:13:50;;;;;;;418.63;98.13;;;;;;;-2.49;66.01;94952.31;5060481;28;20683;-91
2022/01/22 05:16:16;;;;;;;400.83;79.83;;;;;;;-2.18;66.00;94987.47;5065592;28;20190;-90
2022/01/22 05:18:57;;;;;;;381.27;73.93;;;;;;;-2.29;66.08;94960.00;5066168;28;20189;-90
2022/01/22 05:21:24;;;;;;;367.83;70.37;;;;;;;-2.54;66.14;94931.28;5073511;28;20175;-91
2022/01/22 05:23:51;;;;;;;366.33;52.43;;;;;;;-2.55;66.46;94932.25;5056453;28;20542;-90
2022/01/22 05:27:22;;;;;;;353.20;60.20;;;;;;;-2.52;65.78;94942.28;5073322;28;20162;-90
2022/01/22 05:39:21;;;;;;;354.33;80.10;;;;;;;-2.31;64.60;94976.53;5074536;28;20162;-88
2022/01/22 05:41:47;;;;;;;354.67;70.37;;;;;;;-2.15;64.82;95004.41;5074314;28;20174;-89
2022/01/22 05:44:13;;;;;;;363.37;69.80;;;;;;;-2.39;64.91;94966.06;5072417;28;20158;-90
2022/01/22 05:46:38;;;;;;;296.93;42.90;;;;;;;-2.63;65.55;94922.59;5073047;28;20689;-90
2022/01/22 05:49:05;;;;;;;346.97;58.77;;;;;;;-2.05;65.72;95002.69;5065375;28;20665;-91
2022/01/22 05:51:31;;;;;;;234.90;34.73;;;;;;;-2.06;66.16;94996.72;5067337;28;20185;-91
2022/01/22 06:02:17;;;;;;;10.80;4.93;;;;;;;-2.06;66.86;94991.56;5038000;28;20270;-89
2022/01/22 06:04:44;;;;;;;12.77;6.93;;;;;;;-2.04;66.90;94999.97;5049494;28;20255;-91
2022/01/22 06:07:10;;;;;;;20.47;7.60;;;;;;;-2.15;67.21;94973.47;5032625;28;20231;-90
2022/01/22 06:09:40;;;;;;;15.23;6.93;;;;;;;-2.43;66.81;94919.16;5033923;28;20194;-91
2022/01/22 06:14:31;;;;;;;12.30;6.50;;;;;;;-1.96;67.03;94982.09;5033941;28;20183;-90
2022/01/22 06:16:57;;;;;;;19.60;7.40;;;;;;;-2.24;66.58;94931.25;5047515;28;20239;-90
2022/01/22 06:19:23;;;;;;;16.00;8.10;;;;;;;-1.82;66.50;94991.25;5060747;28;20171;-89
2022/01/22 06:21:51;;;;;;;22.07;9.73;;;;;;;-2.13;65.35;94936.31;5062002;28;20166;-91
2022/01/22 06:24:16;;;;;;;19.20;8.37;;;;;;;-1.79;65.36;94983.22;5055287;28;20197;-90
2022/01/22 06:26:42;;;;;;;15.03;8.23;;;;;;;-2.04;65.42;94938.09;5058138;28;20652;-88
2022/01/22 06:29:08;;;;;;;21.10;9.10;;;;;;;-1.72;65.13;94996.38;5064774;28;20179;-88
2022/01/22 06:31:34;;;;;;;46.83;24.57;;;;;;;-1.75;65.21;94982.00;5064770;28;20704;-90
2022/01/22 06:33:59;;;;;;;337.37;40.20;;;;;;;-1.88;65.01;94967.72;5066137;28;20182;-90
2022/01/22 06:36:26;;;;;;;322.23;42.53;;;;;;;-1.71;63.96;94987.72;5057038;28;20307;-89
2022/01/22 06:38:57;;;;;;;385.47;63.93;;;;;;;-1.89;64.26;94961.75;5061497;28;20182;-89
2022/01/22 06:44:07;;;;;;;1178.73;556.00;;;;;;;-1.71;63.31;94964.50;5062051;28;20174;-90
2022/01/22 06:46:33;;;;;;;1999.90;999.90;;;;;;;-2.12;63.39;94912.16;5065871;28;20182;-86
2022/01/22 06:48:58;;;;;;;1999.90;999.90;;;;;;;-2.03;63.64;94926.84;5061301;28;20266;-87
2022/01/22 06:51:26;;;;;;;1999.90;999.90;;;;;;;-1.79;63.83;94951.44;5068053;28;20182;-89
2022/01/22 06:53:53;;;;;;;1999.90;999.90;;;;;;;-1.69;63.65;94980.66;5058038;28;20206;-90
2022/01/22 06:56:20;;;;;;;1999.90;999.90;;;;;;;-1.78;64.04;94969.38;5056089;28;21021;-91
2022/01/22 06:58:49;;;;;;;248.80;204.63;;;;;;;-1.70;64.07;94948.06;5055295;28;20652;-90
2022/01/22 07:01:15;;;;;;;1999.90;999.90;;;;;;;-1.71;63.32;94960.16;5048427;28;20178;-91
2022/01/22 07:03:41;;;;;;;364.10;78.37;;;;;;;-1.50;63.29;94956.66;5053015;28;20228;-91
2022/01/22 07:06:07;;;;;;;508.97;247.77;;;;;;;-1.46;62.51;94952.81;5053502;28;20166;-91
2022/01/22 07:08:32;;;;;;;557.37;224.73;;;;;;;-1.49;62.35;94917.00;5051371;28;20230;-88
2022/01/22 07:10:58;;;;;;;1051.97;444.80;;;;;;;-1.40;61.83;94887.78;5053127;28;20178;-91
2022/01/22 07:13:24;;;;;;;1999.90;999.90;;;;;;;-0.47;60.25;94935.13;5051112;28;20187;-88
2022/01/22 07:15:49;;;;;;;1999.90;999.90;;;;;;;0.31;58.28;94927.78;5051450;28;20202;-93
2022/01/22 07:18:15;;;;;;;160.20;146.00;;;;;;;1.51;55.51;94976.41;5050801;28;20232;-90
2022/01/22 07:20:42;;;;;;;15.43;7.10;;;;;;;2.11;52.91;94928.84;5052341;28;20213;-91
2022/01/22 07:25:39;;;;;;;10.93;6.03;;;;;;;6.12;46.06;94967.69;5052513;28;20198;-91
2022/01/22 07:28:05;;;;;;;12.17;7.13;;;;;;;7.60;42.22;94908.63;5051502;28;20191;-92
2022/01/22 07:30:31;;;;;;;13.53;6.07;;;;;;;9.01;38.74;94868.66;5051232;28;20171;-92
2022/01/22 07:32:56;;;;;;;12.23;5.50;;;;;;;10.69;33.90;94907.41;5051310;28;20257;-92
2022/01/22 07:35:22;;;;;;;16.80;7.47;;;;;;;10.48;32.43;94904.06;5051889;28;20750;-91
2022/01/22 07:37:47;;;;;;;16.37;8.33;;;;;;;9.13;33.53;94884.63;5051732;28;20183;-92
2022/01/22 07:40:13;;;;;;;11.97;6.17;;;;;;;7.43;35.53;94863.59;5051415;28;20171;-91
2022/01/22 07:42:40;;;;;;;14.07;6.77;;;;;;;6.15;39.00;94919.44;5051101;28;20174;-92
2022/01/22 07:45:07;;;;;;;11.30;5.73;;;;;;;4.80;41.45;94835.16;5052819;28;20237;-92
2022/01/22 07:47:32;;;;;;;14.73;7.43;;;;;;;5.00;41.63;94897.28;5053528;28;20592;-91
2022/01/22 07:49:58;;;;;;;13.80;7.80;;;;;;;5.04;42.94;94901.94;5068011;28;20239;-90
2022/01/22 07:52:24;;;;;;;13.67;7.53;;;;;;;4.83;41.99;94858.28;5069637;28;20178;-92
2022/01/22 07:54:50;;;;;;;19.90;8.63;;;;;;;4.92;41.99;94856.41;5056975;28;20261;-92
2022/01/22 07:57:16;;;;;;;15.00;7.13;;;;;;;4.11;41.86;94842.16;5072375;28;20660;-91
2022/01/22 07:59:41;;;;;;;16.83;7.93;;;;;;;4.11;43.86;94867.38;5070958;28;20177;-91
2022/01/22 08:02:07;;;;;;;13.47;6.80;;;;;;;5.39;42.16;94918.75;5071050;28;20853;-91
2022/01/22 08:04:34;;;;;;;18.03;7.87;;;;;;;7.17;39.40;94916.56;5071049;28;20257;-91
2022/01/22 08:07:01;;;;;;;19.80;9.30;;;;;;;8.08;36.34;94859.72;5073952;28;20222;-91
2022/01/22 08:09:27;;;;;;;19.07;9.63;;;;;;;9.75;34.83;94932.34;5075221;28;20181;-90
2022/01/22 08:11:52;;;;;;;19.03;9.60;;;;;;;9.61;33.14;94840.56;5075099;28;20182;-91
2022/01/22 08:14:18;;;;;;;15.87;8.27;;;;;;;9.96;32.91;94881.31;5074972;28;20170;-91
2022/01/22 08:16:46;;;;;;;13.53;7.60;;;;;;;9.16;33.91;94845.66;5074982;28;20671;-91
2022/01/22 08:19:12;;;;;;;13.37;6.83;;;;;;;9.01;34.58;94840.59;5075002;28;20170;-91
2022/01/22 08:21:38;;;;;;;17.53;8.63;;;;;;;9.77;34.52;94906.63;5075057;28;20177;-90
2022/01/22 08:24:04;;;;;;;17.40;7.97;;;;;;;9.23;32.92;94820.22;5074724;28;20166;-90
2022/01/22 08:26:34;;;;;;;11.50;6.53;;;;;;;9.64;33.32;94890.91;5074949;28;20625;-91
2022/01/22 08:29:02;;;;;;;14.10;7.37;;;;;;;9.20;32.46;94825.03;5074836;28;20185;-91
2022/01/22 08:36:45;;;;;;;10.80;6.60;;;;;;;9.22;33.34;94905.25;5075897;28;20247;-91
2022/01/22 08:39:13;;;;;;;14.53;6.70;;;;;;;9.01;34.04;94908.03;5066350;28;20175;-91
2022/01/22 08:41:38;;;;;;;15.20;8.03;;;;;;;8.73;34.30;94889.03;5068061;28;20868;-90
2022/01/22 08:44:04;;;;;;;20.27;8.97;;;;;;;8.67;34.71;94896.66;5060363;28;20166;-90
2022/01/22 08:46:31;;;;;;;19.03;9.20;;;;;;;7.98;34.62;94833.03;5063670;28;20178;-91
2022/01/22 08:48:56;;;;;;;14.60;7.73;;;;;;;7.30;36.24;94826.81;5071578;28;20178;-91
2022/01/22 08:51:22;;;;;;;16.43;7.80;;;;;;;7.18;37.33;94847.47;5065477;28;20206;-90
2022/01/22 08:53:49;;;;;;;12.00;6.07;;;;;;;7.06;37.66;94817.59;5056613;28;20174;-90
2022/01/22 08:56:15;;;;;;;8.13;4.50;;;;;;;7.49;37.46;94906.53;5056941;28;20684;-91
2022/01/22 08:58:41;;;;;;;9.03;4.67;;;;;;;6.81;36.92;94858.25;5054659;28;20189;-92
2022/01/22 09:01:07;;;;;;;9.93;4.40;;;;;;;6.89;37.67;94915.69;5058250;28;20273;-92
2022/01/22 09:03:33;;;;;;;12.13;5.20;;;;;;;6.37;38.41;94861.03;5056144;28;20198;-91
2022/01/22 09:06:00;;;;;;;21.27;8.00;;;;;;;6.07;38.62;94839.38;5058070;28;20640;-92
2022/01/22 09:08:26;;;;;;;15.83;8.03;;;;;;;5.67;38.51;94815.34;5060313;28;20215;-93
2022/01/22 09:10:53;;;;;;;7.20;4.00;;;;;;;5.69;39.30;94923.06;5052038;28;20190;-92
2022/01/22 09:13:23;;;;;;;5.13;3.53;;;;;;;5.04;40.90;94924.59;5053906;28;20265;-91
2022/01/22 09:15:50;;;;;;;11.30;5.53;;;;;;;4.43;42.21;94828.09;5055259;28;20198;-91
2022/01/22 09:18:16;;;;;;;8.73;4.57;;;;;;;4.63;42.04;94838.06;5056786;28;20236;-92
2022/01/22 09:20:55;;;;;;;7.43;4.37;;;;;;;4.61;41.42;94833.03;5052676;28;20183;-92
2022/01/22 09:23:20;;;;;;;17.57;7.67;;;;;;;5.15;42.86;94891.09;5057617;28;20194;-92
2022/01/22 09:25:46;;;;;;;11.87;6.80;;;;;;;4.98;41.43;94875.75;5093588;28;20570;-92
2022/01/22 09:28:13;;;;;;;11.83;6.77;;;;;;;4.48;42.45;94820.59;5062853;28;20241;-93
2022/01/22 09:30:40;;;;;;;13.63;6.13;;;;;;;4.66;41.96;94851.56;5058285;28;20167;-92
2022/01/22 09:33:06;;;;;;;10.50;5.73;;;;;;;4.55;41.35;94858.00;5054148;28;20663;-92
2022/01/22 09:35:31;;;;;;;11.87;5.30;;;;;;;4.49;41.36;94824.00;5057379;28;20195;-92
2022/01/22 09:37:57;;;;;;;12.97;6.53;;;;;;;4.70;41.34;94815.53;5057221;28;20182;-91
2022/01/22 09:40:25;;;;;;;12.60;6.43;;;;;;;4.47;41.92;94779.06;5052845;28;20171;-92
2022/01/22 09:42:50;;;;;;;16.90;7.30;;;;;;;3.88;42.58;94806.66;5055345;28;20178;-92
2022/01/22 09:45:17;;;;;;;9.07;5.43;;;;;;;3.78;42.75;94786.03;5060795;28;20249;-92
2022/01/22 09:47:49;;;;;;;11.77;5.33;;;;;;;4.32;43.03;94858.97;5055388;28;20586;-92
2022/01/22 09:50:22;;;;;;;7.23;4.43;;;;;;;3.75;42.81;94800.19;5057373;28;20280;-91
2022/01/22 09:52:49;;;;;;;16.03;6.83;;;;;;;3.18;43.95;94757.19;5056942;28;20261;-93
2022/01/22 09:55:15;;;;;;;17.87;9.00;;;;;;;3.27;43.61;94795.19;5055647;28;20207;-92
2022/01/22 09:57:41;;;;;;;22.03;9.67;;;;;;;3.82;44.05;94846.34;5056521;28;20262;-92
2022/01/22 10:00:09;;;;;;;14.30;6.77;;;;;;;4.00;43.71;94832.13;5061812;28;20207;-92
2022/01/22 10:02:42;;;;;;;16.33;9.17;;;;;;;3.96;43.97;94836.06;5056026;28;20182;-92
2022/01/22 10:05:34;;;;;;;15.30;7.60;;;;;;;4.01;44.55;94833.75;5055124;28;20170;-92
2022/01/22 10:08:30;;;;;;;12.63;6.17;;;;;;;3.90;43.84;94836.72;5055905;28;20225;-92
2022/01/22 10:10:58;;;;;;;15.83;8.13;;;;;;;3.81;45.67;94801.28;5059109;28;20171;-91
2022/01/22 10:13:38;;;;;;;11.13;6.47;;;;;;;3.69;44.92;94774.03;5057973;28;20190;-91
2022/01/22 10:16:31;;;;;;;10.23;6.20;;;;;;;3.60;44.76;94790.69;5058639;28;20206;-92
2022/01/22 10:19:24;;;;;;;11.73;6.27;;;;;;;3.90;46.21;94834.13;5055094;28;20810;-91
2022/01/22 10:21:56;;;;;;;10.43;5.80;;;;;;;3.40;46.50;94780.66;5054677;28;20179;-91
2022/01/22 10:24:47;;;;;;;12.13;7.23;;;;;;;3.70;45.61;94797.31;5056671;28;20629;-88
2022/01/22 10:27:33;;;;;;;14.20;7.27;;;;;;;3.98;45.37;94807.25;5056342;28;20216;-90
2022/01/22 10:30:05;;;;;;;17.57;7.00;;;;;;;4.34;45.77;94820.50;5061184;28;20186;-91
2022/01/22 10:35:18;;;;;;;9.80;5.63;;;;;;;4.28;44.50;94819.41;5069590;28;20655;-90
2022/01/22 10:37:45;;;;;;;12.10;6.47;;;;;;;3.83;45.36;94754.28;5073194;28;20223;-91
2022/01/22 10:40:31;;;;;;;17.40;8.77;;;;;;;3.87;46.16;94753.78;5071876;28;20212;-89
2022/01/22 10:46:19;;;;;;;13.57;7.07;;;;;;;3.08;44.51;94759.16;5073081;28;20216;-89
2022/01/22 10:48:55;;;;;;;19.13;8.57;;;;;;;3.18;44.89;94791.81;5071484;28;20181;-89
2022/01/22 10:51:21;;;;;;;12.50;6.50;;;;;;;3.13;44.23;94783.69;5062571;28;20235;-90
2022/01/22 10:53:48;;;;;;;20.13;9.73;;;;;;;2.76;44.77;94728.88;5052806;28;20218;-90
2022/01/22 10:56:19;;;;;;;8.07;4.63;;;;;;;3.09;43.56;94794.59;5052613;28;20238;-90
2022/01/22 10:59:07;;;;;;;12.63;7.17;;;;;;;2.99;45.04;94793.00;5057951;28;20187;-91
2022/01/22 11:01:51;;;;;;;18.87;8.03;;;;;;;3.00;44.92;94778.22;5065238;28;20663;-91
2022/01/22 11:04:24;;;;;;;20.70;10.10;;;;;;;2.75;45.69;94741.06;5059483;28;20683;-89
2022/01/22 11:06:54;;;;;;;14.43;7.80;;;;;;;3.22;45.07;94794.88;5063687;28;20248;-91
2022/01/22 11:09:21;;;;;;;14.47;7.57;;;;;;;3.15;44.85;94784.34;5059868;28;20174;-91
2022/01/22 11:11:48;;;;;;;20.53;9.83;;;;;;;2.59;45.49;94691.75;5058437;28;20182;-91
2022/01/22 11:14:15;;;;;;;17.73;8.97;;;;;;;3.07;45.34;94780.94;5058450;28;20224;-90
2022/01/22 11:16:43;;;;;;;19.30;10.43;;;;;;;2.90;46.23;94773.19;5052303;28;20688;-89
2022/01/22 11:19:10;;;;;;;11.67;5.90;;;;;;;2.54;45.36;94731.19;5050755;28;20976;-90
2022/01/22 11:21:40;;;;;;;8.67;4.90;;;;;;;2.47;45.76;94717.25;5060719;28;20273;-90
2022/01/22 11:24:09;;;;;;;10.43;5.20;;;;;;;2.44;46.07;94708.94;5063918;28;20199;-88
2022/01/22 11:26:38;;;;;;;11.83;6.33;;;;;;;2.46;46.32;94702.63;5057418;28;20269;-89
2022/01/22 11:29:04;;;;;;;20.20;8.13;;;;;;;2.49;46.41;94717.09;5046240;28;20182;-90
2022/01/22 11:31:31;;;;;;;15.77;6.93;;;;;;;2.68;46.82;94729.72;5057400;28;20536;-90
2022/01/22 11:33:59;;;;;;;16.17;5.87;;;;;;;2.52;47.98;94703.75;5057002;28;20193;-90
2022/01/22 11:36:31;;;;;;;12.40;5.10;;;;;;;2.39;47.22;94690.47;5055999;28;20195;-90
2022/01/22 11:39:00;;;;;;;10.63;5.33;;;;;;;2.23;47.28;94670.53;5062434;28;20273;-89
2022/01/22 11:41:27;;;;;;;13.27;6.03;;;;;;;2.71;47.64;94744.97;5059311;28;20178;-89
2022/01/22 11:46:45;;;;;;;12.83;5.03;;;;;;;2.39;47.40;94700.84;5061686;28;20715;-89
2022/01/22 11:49:13;;;;;;;11.40;5.10;;;;;;;2.26;47.38;94690.97;5047979;28;20269;-90
2022/01/22 11:51:39;;;;;;;8.60;4.57;;;;;;;2.00;47.73;94695.50;5067387;28;20635;-92
2022/01/22 11:54:05;;;;;;;7.13;4.13;;;;;;;2.29;48.66;94763.34;5055129;28;20343;-91
2022/01/22 11:56:46;;;;;;;14.53;6.30;;;;;;;2.08;49.53;94753.44;5054927;28;20210;-90
2022/01/22 11:59:11;;;;;;;19.77;9.80;;;;;;;2.02;50.70;94745.50;5048784;28;20186;-90
2022/01/22 12:01:56;;;;;;;19.97;8.33;;;;;;;2.13;50.87;94745.19;5060995;28;20182;-90
2022/01/22 12:04:23;;;;;;;19.03;8.87;;;;;;;2.27;50.55;94747.94;5056711;28;20783;-90
2022/01/22 12:07:03;;;;;;;24.20;10.67;;;;;;;2.27;50.71;94749.72;5056629;28;20666;-90
2022/01/22 12:09:31;;;;;;;15.20;7.10;;;;;;;2.11;50.97;94753.13;5059688;28;20228;-87
2022/01/22 12:15:00;;;;;;;23.00;7.97;;;;;;;1.61;54.03;94706.53;5051586;28;20178;-85
2022/01/22 12:18:06;;;;;;;14.60;6.40;;;;;;;1.74;54.74;94740.59;5051411;28;20187;-86
2022/01/22 12:20:43;;;;;;;20.30;6.73;;;;;;;1.86;59.98;94741.91;5051755;28;20220;-90
2022/01/22 12:23:09;;;;;;;12.67;5.67;;;;;;;1.62;55.55;94697.78;5050779;28;20175;-88
2022/01/22 12:25:35;;;;;;;8.83;4.37;;;;;;;1.71;56.39;94747.91;5050498;28;20213;-89
2022/01/22 12:28:02;;;;;;;10.03;4.77;;;;;;;1.50;58.53;94740.53;5050324;28;20214;-87
2022/01/22 12:30:43;;;;;;;14.60;5.73;;;;;;;1.27;60.63;94739.50;5051726;28;20164;-90
2022/01/22 12:33:13;;;;;;;10.30;6.30;;;;;;;1.25;61.80;94747.44;5050619;28;20178;-89
2022/01/22 12:35:47;;;;;;;14.23;7.27;;;;;;;1.14;61.30;94704.47;5050319;28;20771;-90
2022/01/22 12:38:26;;;;;;;15.27;7.73;;;;;;;1.34;60.57;94707.59;5047727;28;20175;-90
2022/01/22 12:40:58;;;;;;;15.87;9.97;;;;;;;1.41;59.60;94697.41;5050297;28;20632;-89
2022/01/22 12:43:34;;;;;;;16.70;7.73;;;;;;;1.67;57.65;94723.22;5050944;28;20171;-89
2022/01/22 12:46:04;;;;;;;13.80;6.57;;;;;;;1.82;56.79;94719.03;5050503;28;20174;-88
2022/01/22 12:48:38;;;;;;;16.47;7.90;;;;;;;1.94;56.84;94719.53;5054259;28;20664;-89
2022/01/22 12:51:06;;;;;;;16.97;8.27;;;;;;;1.45;56.07;94665.00;5056771;28;20190;-84
2022/01/22 12:53:34;;;;;;;23.27;9.03;;;;;;;1.68;56.27;94730.84;5056761;28;20194;-88
2022/01/22 12:56:35;;;;;;;24.10;8.70;;;;;;;1.44;55.50;94681.53;5060934;28;20198;-90
2022/01/22 12:58:48;;;;;;;29.83;10.23;;;;;;;1.24;55.01;94673.22;5062776;28;20182;-88
2022/01/22 13:01:16;;;;;;;18.87;8.60;;;;;;;1.09;54.71;94649.72;5063129;28;20191;-89
2022/01/22 13:03:49;;;;;;;12.33;6.43;;;;;;;1.39;55.52;94686.38;5058901;28;20186;-90
2022/01/22 13:06:15;;;;;;;22.63;8.80;;;;;;;1.37;54.92;94689.16;5058950;28;20289;-84
2022/01/22 13:08:41;;;;;;;18.47;9.53;;;;;;;1.49;54.80;94692.22;5064310;28;20231;-83
2022/01/22 13:11:09;;;;;;;19.00;9.83;;;;;;;1.56;54.65;94684.66;5061262;28;20178;-85
2022/01/22 13:13:39;;;;;;;14.33;6.80;;;;;;;1.41;54.62;94664.50;5064720;28;20198;-88
2022/01/22 13:16:10;;;;;;;26.63;7.67;;;;;;;1.66;54.21;94693.88;5064385;28;20195;-82
2022/01/22 13:18:52;;;;;;;20.80;8.57;;;;;;;1.39;54.17;94644.88;5059927;28;20177;-86
2022/01/22 13:21:19;;;;;;;17.67;8.00;;;;;;;1.69;54.16;94682.38;5065767;28;20189;-85
2022/01/22 13:23:48;;;;;;;20.90;9.60;;;;;;;1.78;54.15;94694.38;5059985;28;20265;-86
2022/01/22 13:26:14;;;;;;;19.33;7.70;;;;;;;1.43;54.24;94635.84;5064238;28;20182;-87